Time;durP1;ratioP1;P1;durP2;ratioP2;P2;SDS_P1;SDS_P2;PMS_P1;PMS_P2;Temp;Humidity;BMP_temperature;BMP_pressure;BME280_temperature;BME280_humidity;BME280_pressure;Samples;Min_cycle;Max_cycle;Signal;HPM_P1;HPM_P2
2023/04/09 00:03:08;;;;;;;43.03;23.40;;;;;;;7.62;100.00;102670.75;10371017;28;20030;-75
2023/04/09 00:08:09;;;;;;;37.42;20.83;;;;;;;7.32;100.00;102631.56;10371275;28;20038;-75
2023/04/09 00:13:09;;;;;;;44.50;23.10;;;;;;;7.64;100.00;102687.00;10371591;28;20034;-73
2023/04/09 00:18:10;;;;;;;45.10;24.85;;;;;;;7.65;100.00;102680.50;10355334;28;20042;-74
2023/04/09 00:23:11;;;;;;;47.42;25.83;;;;;;;7.62;100.00;102681.72;10370747;28;20669;-74
2023/04/09 00:28:11;;;;;;;48.05;25.58;;;;;;;7.63;100.00;102682.59;10381637;28;20053;-74
2023/04/09 00:33:12;;;;;;;46.45;26.60;;;;;;;7.46;100.00;102643.53;10377537;28;20030;-75
2023/04/09 00:38:12;;;;;;;43.85;26.15;;;;;;;7.43;100.00;102642.03;10379688;28;20041;-75
2023/04/09 00:43:12;;;;;;;44.63;24.92;;;;;;;7.57;100.00;102664.16;10361744;28;20064;-73
2023/04/09 00:48:13;;;;;;;49.00;24.52;;;;;;;7.57;100.00;102677.88;10379814;28;20056;-75
2023/04/09 00:53:13;;;;;;;46.83;24.38;;;;;;;7.57;100.00;102672.38;10360470;28;20049;-74
2023/04/09 00:58:14;;;;;;;43.97;24.55;;;;;;;6.91;100.00;102574.53;10361282;28;20092;-74
2023/04/09 01:03:15;;;;;;;47.50;25.50;;;;;;;7.53;100.00;102665.59;10359947;28;20077;-74
2023/04/09 01:08:22;;;;;;;41.08;23.67;;;;;;;7.41;100.00;102646.84;10360132;28;20041;-74
2023/04/09 01:13:33;;;;;;;44.90;22.98;;;;;;;7.48;100.00;102641.47;10360665;28;20049;-74
2023/04/09 01:18:36;;;;;;;42.47;24.23;;;;;;;7.54;100.00;102656.31;10377415;28;20657;-74
2023/04/09 01:24:01;;;;;;;51.50;27.52;;;;;;;7.53;100.00;102654.63;10396794;28;20044;-75
2023/04/09 01:29:02;;;;;;;52.30;27.08;;;;;;;7.54;100.00;102656.31;10399091;28;20037;-75
2023/04/09 01:34:02;;;;;;;51.78;29.67;;;;;;;7.44;100.00;102641.00;10418416;28;20034;-75
2023/04/09 01:39:03;;;;;;;61.83;31.27;;;;;;;7.50;100.00;102642.13;10399334;28;20041;-69
2023/04/09 01:44:03;;;;;;;55.95;31.25;;;;;;;7.50;100.00;102641.28;10383525;28;20069;-73
2023/04/09 01:49:04;;;;;;;58.30;29.25;;;;;;;7.41;100.00;102638.63;10359199;28;20038;-74
2023/04/09 01:54:04;;;;;;;52.35;29.83;;;;;;;7.44;100.00;102648.38;10326249;28;20038;-73
2023/04/09 01:59:05;;;;;;;55.30;29.05;;;;;;;7.46;100.00;102660.84;10358265;28;20041;-74
2023/04/09 02:04:09;;;;;;;59.08;31.27;;;;;;;7.37;100.00;102631.84;10376440;28;20034;-74
2023/04/09 02:09:10;;;;;;;50.08;28.95;;;;;;;7.41;100.00;102646.84;10359039;28;20053;-74
2023/04/09 02:14:10;;;;;;;56.28;30.65;;;;;;;7.37;100.00;102629.09;10366618;28;20164;-74
2023/04/09 02:19:11;;;;;;;57.08;29.10;;;;;;;7.34;100.00;102617.66;10381119;28;20041;-74
2023/04/09 02:24:11;;;;;;;60.30;30.60;;;;;;;7.29;100.00;102615.50;10414395;28;20040;-74
2023/04/09 02:29:12;;;;;;;54.00;28.60;;;;;;;7.25;100.00;102608.69;10365064;28;20277;-74
2023/04/09 02:34:12;;;;;;;60.70;30.30;;;;;;;7.24;100.00;102623.44;10397084;28;20068;-75
2023/04/09 02:39:13;;;;;;;60.72;28.95;;;;;;;7.32;100.00;102634.31;10373105;28;20050;-74
2023/04/09 02:44:13;;;;;;;61.28;28.77;;;;;;;7.28;100.00;102627.50;10355977;28;20034;-72
2023/04/09 02:49:14;;;;;;;48.85;26.92;;;;;;;7.32;100.00;102622.47;10340805;28;20093;-75
2023/04/09 02:54:14;;;;;;;62.20;30.48;;;;;;;7.26;100.00;102621.38;10374148;28;20038;-75
2023/04/09 02:59:15;;;;;;;66.78;32.22;;;;;;;7.15;100.00;102608.13;10357273;28;20049;-74
2023/04/09 03:04:15;;;;;;;65.15;34.08;;;;;;;7.19;100.00;102614.94;10354860;28;20437;-74
2023/04/09 03:09:16;;;;;;;69.55;33.90;;;;;;;7.07;100.00;102587.19;10373905;28;20045;-74
2023/04/09 03:14:16;;;;;;;70.85;33.10;;;;;;;7.18;100.00;102607.78;10349071;28;20042;-74
2023/04/09 03:19:17;;;;;;;62.05;33.47;;;;;;;7.12;100.00;102597.56;10333978;28;20042;-75
2023/04/09 03:24:17;;;;;;;65.78;34.80;;;;;;;7.11;100.00;102607.69;10331887;28;20035;-75
2023/04/09 03:29:18;;;;;;;68.07;34.30;;;;;;;7.11;100.00;102607.69;10331058;28;20548;-75
2023/04/09 03:34:18;;;;;;;69.82;37.25;;;;;;;7.14;100.00;102603.72;10331289;28;20050;-71
2023/04/09 03:39:18;;;;;;;66.13;36.55;;;;;;;7.14;100.00;102600.97;10332856;28;20045;-74
2023/04/09 03:44:19;;;;;;;65.32;35.58;;;;;;;7.13;100.00;102593.78;10365805;28;20095;-74
2023/04/09 03:49:19;;;;;;;65.93;35.55;;;;;;;6.92;100.00;102565.25;10371150;28;20046;-74
2023/04/09 03:54:20;;;;;;;70.50;37.20;;;;;;;7.14;100.00;102590.00;10373021;28;20038;-74
2023/04/09 03:59:21;;;;;;;71.55;38.05;;;;;;;7.06;100.00;102594.53;10354454;28;20030;-75
2023/04/09 04:04:21;;;;;;;76.35;39.35;;;;;;;6.89;100.00;102576.59;10372967;28;20037;-75
2023/04/09 04:09:22;;;;;;;78.35;39.50;;;;;;;6.91;100.00;102590.94;10337801;28;20034;-73
2023/04/09 04:14:22;;;;;;;67.93;37.10;;;;;;;6.85;100.00;102591.69;10366985;28;20038;-74
2023/04/09 04:19:23;;;;;;;75.45;38.75;;;;;;;6.50;100.00;102561.25;10338037;28;20038;-73
2023/04/09 04:24:23;;;;;;;78.32;37.60;;;;;;;6.71;100.00;102595.28;10353634;28;20034;-73
2023/04/09 04:29:24;;;;;;;81.57;40.72;;;;;;;6.61;100.00;102603.72;10354396;28;20041;-73
2023/04/09 04:34:24;;;;;;;84.68;42.42;;;;;;;6.13;100.00;102548.44;10371271;28;20034;-73
2023/04/09 04:39:25;;;;;;;82.28;43.40;;;;;;;6.32;100.00;102604.50;10372154;28;20034;-74
2023/04/09 04:44:25;;;;;;;86.47;45.20;;;;;;;6.13;100.00;102601.22;10371125;28;20030;-74
2023/04/09 04:49:25;;;;;;;91.05;48.22;;;;;;;5.93;100.00;102605.44;10353350;28;20461;-73
2023/04/09 04:54:26;;;;;;;111.80;54.05;;;;;;;5.67;100.00;102609.38;10398177;28;20038;-74
2023/04/09 04:59:26;;;;;;;108.57;53.40;;;;;;;5.59;100.00;102613.00;10394304;28;20524;-74
2023/04/09 05:04:27;;;;;;;110.88;55.03;;;;;;;5.58;100.00;102621.34;10359058;28;20088;-74
2023/04/09 05:09:27;;;;;;;112.38;56.47;;;;;;;5.69;100.00;102611.94;10370733;28;20034;-74
2023/04/09 05:14:28;;;;;;;102.03;53.15;;;;;;;5.96;100.00;102622.38;10360786;28;20080;-69
2023/04/09 05:19:28;;;;;;;98.35;53.03;;;;;;;6.13;100.00;102620.38;10360826;28;20172;-74
2023/04/09 05:24:29;;;;;;;97.43;50.33;;;;;;;6.26;100.00;102623.38;10359711;28;20033;-73
2023/04/09 05:29:29;;;;;;;99.13;49.88;;;;;;;6.35;100.00;102612.38;10377773;28;20026;-74
2023/04/09 05:34:30;;;;;;;96.25;47.38;;;;;;;6.45;100.00;102624.75;10384063;28;20048;-74
2023/04/09 05:39:31;;;;;;;93.70;47.10;;;;;;;6.59;100.00;102633.16;10418994;28;20026;-73
2023/04/09 05:44:32;;;;;;;84.40;44.83;;;;;;;6.65;100.00;102629.69;10400550;28;20045;-74
2023/04/09 05:49:32;;;;;;;84.95;42.88;;;;;;;6.64;100.00;102634.31;10383489;28;20037;-74
2023/04/09 05:54:33;;;;;;;74.30;39.60;;;;;;;6.74;100.00;102633.19;10416193;28;20030;-74
2023/04/09 05:59:33;;;;;;;74.13;37.70;;;;;;;6.79;100.00;102625.31;10359234;28;20026;-74
2023/04/09 06:04:33;;;;;;;58.40;32.38;;;;;;;6.88;100.00;102624.16;10375643;28;20041;-74
2023/04/09 06:09:34;;;;;;;53.63;32.03;;;;;;;6.87;100.00;102611.53;10377141;28;20049;-74
2023/04/09 06:14:34;;;;;;;57.97;29.63;;;;;;;7.03;100.00;102627.78;10358482;28;20060;-74
2023/04/09 06:19:35;;;;;;;48.22;27.58;;;;;;;7.10;100.00;102621.56;10373249;28;20045;-74
2023/04/09 06:24:35;;;;;;;36.63;23.27;;;;;;;7.14;100.00;102617.41;10373320;28;20042;-74
2023/04/09 06:29:36;;;;;;;44.13;23.85;;;;;;;7.20;100.00;102616.66;10358109;28;20052;-74
2023/04/09 06:34:36;;;;;;;41.28;23.27;;;;;;;7.28;100.00;102605.59;10373649;28;20042;-74
2023/04/09 06:39:37;;;;;;;41.25;22.63;;;;;;;7.30;100.00;102592.56;10393696;28;20037;-74
2023/04/09 06:44:37;;;;;;;40.83;25.30;;;;;;;7.72;100.00;102614.78;10395853;28;20048;-74
2023/04/09 06:49:38;;;;;;;41.90;23.33;;;;;;;8.04;100.00;102624.41;10397380;28;20052;-74
2023/04/09 06:54:38;;;;;;;36.78;21.83;;;;;;;7.96;100.00;102554.09;10380469;28;20036;-69
2023/04/09 06:59:39;;;;;;;40.47;22.65;;;;;;;8.52;100.00;102632.13;10395355;28;20037;-75
2023/04/09 07:04:40;;;;;;;46.22;23.70;;;;;;;8.49;100.00;102614.13;10372596;28;20034;-74
2023/04/09 07:09:41;;;;;;;45.60;23.70;;;;;;;8.50;100.00;102601.28;10374208;28;20042;-74
2023/04/09 07:14:42;;;;;;;43.17;23.02;;;;;;;8.55;100.00;102588.63;10338882;28;20046;-75
2023/04/09 07:19:42;;;;;;;40.78;22.92;;;;;;;8.62;100.00;102611.50;10390639;28;20041;-75
2023/04/09 07:24:42;;;;;;;43.05;23.42;;;;;;;8.79;100.00;102612.06;10412182;28;20507;-75
2023/04/09 07:29:43;;;;;;;45.65;24.48;;;;;;;8.97;100.00;102617.06;10412495;28;20044;-75
2023/04/09 07:34:44;;;;;;;41.80;24.15;;;;;;;8.87;100.00;102614.66;10393451;28;20044;-74
2023/04/09 07:39:45;;;;;;;42.22;24.58;;;;;;;8.74;100.00;102602.72;10427493;28;20045;-75
2023/04/09 07:44:46;;;;;;;45.20;24.15;;;;;;;8.85;100.00;102622.25;10391518;28;20500;-75
2023/04/09 07:49:46;;;;;;;46.17;25.10;;;;;;;9.26;100.00;102623.34;10387936;28;20041;-75
2023/04/09 07:54:47;;;;;;;40.65;23.73;;;;;;;9.31;100.00;102615.34;10407253;28;20033;-74
2023/04/09 07:59:47;;;;;;;41.60;23.30;;;;;;;9.48;100.00;102597.44;10391560;28;20513;-73
2023/04/09 08:04:48;;;;;;;37.28;21.70;;;;;;;9.71;100.00;102604.50;10393528;28;20414;-75
2023/04/09 08:09:48;;;;;;;40.13;24.48;;;;;;;9.88;100.00;102610.47;10373402;28;20040;-75
2023/04/09 08:14:49;;;;;;;37.25;21.55;;;;;;;9.79;100.00;102604.31;10391879;28;20041;-74
2023/04/09 08:19:50;;;;;;;37.05;21.83;;;;;;;9.90;100.00;102602.88;10384323;28;20034;-75
2023/04/09 08:24:51;;;;;;;34.05;19.52;;;;;;;10.21;100.00;102602.31;10360081;28;20034;-75
2023/04/09 08:29:52;;;;;;;34.25;21.08;;;;;;;10.27;100.00;102600.63;10406845;28;20076;-75
2023/04/09 08:34:52;;;;;;;34.60;20.58;;;;;;;10.36;100.00;102584.78;10371811;28;20055;-74
2023/04/09 08:39:53;;;;;;;36.55;20.80;;;;;;;10.45;100.00;102600.03;10374504;28;20034;-74
2023/04/09 08:44:53;;;;;;;29.98;18.63;;;;;;;10.75;100.00;102586.69;10366076;28;20464;-75
2023/04/09 08:49:54;;;;;;;32.13;18.73;;;;;;;10.96;100.00;102591.09;10395047;28;20038;-75
2023/04/09 08:54:55;;;;;;;34.72;19.77;;;;;;;11.01;100.00;102566.47;10397894;28;20056;-75
2023/04/09 08:59:55;;;;;;;30.65;18.67;;;;;;;11.44;100.00;102576.94;10419833;28;20034;-75
2023/04/09 09:04:59;;;;;;;30.50;19.15;;;;;;;11.36;100.00;102527.56;10389098;28;20034;-73
2023/04/09 09:10:02;;;;;;;34.33;20.52;;;;;;;11.73;100.00;102563.66;10377977;28;20076;-75
2023/04/09 09:15:22;;;;;;;35.17;20.15;;;;;;;11.84;100.00;102564.88;10376862;28;20034;-74
2023/04/09 09:20:22;;;;;;;32.15;19.65;;;;;;;11.90;100.00;102559.31;10378226;28;20042;-74
2023/04/09 09:25:24;;;;;;;31.65;20.00;;;;;;;12.00;100.00;102558.84;10378056;28;20034;-75
2023/04/09 09:30:25;;;;;;;35.00;21.15;;;;;;;11.96;100.00;102534.69;10374920;28;20038;-75
2023/04/09 09:35:26;;;;;;;34.00;20.30;;;;;;;12.34;100.00;102558.59;10359662;28;20034;-77
2023/04/09 09:40:27;;;;;;;31.75;20.35;;;;;;;12.62;100.00;102547.94;10343218;28;20061;-79
2023/04/09 09:45:28;;;;;;;30.40;19.13;;;;;;;12.63;100.00;102541.34;10366610;28;20048;-79
2023/04/09 09:50:29;;;;;;;31.90;20.10;;;;;;;12.63;100.00;102552.41;10399228;28;20049;-79
2023/04/09 09:55:33;;;;;;;32.00;20.85;;;;;;;12.63;100.00;102546.88;10370991;28;20034;-79
2023/04/09 10:00:34;;;;;;;32.35;20.48;;;;;;;13.11;100.00;102537.00;10377765;28;20029;-79
2023/04/09 10:05:35;;;;;;;29.73;19.83;;;;;;;13.34;100.00;102519.72;10394471;28;20073;-79
2023/04/09 10:10:36;;;;;;;29.50;20.20;;;;;;;13.57;100.00;102512.63;10344642;28;20068;-79
2023/04/09 10:15:37;;;;;;;32.13;20.02;;;;;;;13.37;100.00;102502.66;10386385;28;20054;-79
2023/04/09 10:20:45;;;;;;;34.33;21.77;;;;;;;13.40;100.00;102524.34;10374602;28;20041;-78
2023/04/09 10:25:45;;;;;;;33.47;20.95;;;;;;;13.70;100.00;102518.81;10378507;28;20037;-78
2023/04/09 10:30:45;;;;;;;32.28;21.00;;;;;;;13.75;100.00;102515.34;10366368;28;20103;-78
2023/04/09 10:35:46;;;;;;;31.27;21.48;;;;;;;13.24;100.00;102522.16;10380669;28;20037;-75
2023/04/09 10:40:48;;;;;;;32.92;22.17;;;;;;;13.58;100.00;102506.88;10385573;28;20029;-75
2023/04/09 10:45:53;;;;;;;36.40;22.02;;;;;;;13.35;100.00;102462.47;10355463;28;20110;-75
2023/04/09 10:50:53;;;;;;;36.55;21.80;;;;;;;14.33;100.00;102495.22;10357298;28;20497;-73
2023/04/09 10:55:54;;;;;;;30.17;19.92;;;;;;;13.98;100.00;102480.50;10356090;28;20041;-72
2023/04/09 11:00:55;;;;;;;33.35;20.08;;;;;;;14.26;100.00;102483.41;10360563;28;20042;-71
2023/04/09 11:06:08;;;;;;;27.60;18.02;;;;;;;14.75;100.00;102454.63;10353695;28;20033;-71
2023/04/09 11:11:08;;;;;;;27.63;17.50;;;;;;;14.65;100.00;102450.53;10355511;28;20128;-72
2023/04/09 11:16:10;;;;;;;28.73;18.27;;;;;;;14.72;100.00;102454.03;10372769;28;20041;-71
2023/04/09 11:21:12;;;;;;;29.38;17.40;;;;;;;15.17;100.00;102462.69;10379703;28;20048;-70
2023/04/09 11:26:12;;;;;;;28.67;17.42;;;;;;;15.46;100.00;102446.88;10389508;28;20049;-73
2023/04/09 11:31:13;;;;;;;34.65;19.33;;;;;;;15.18;100.00;102442.22;10372714;28;20048;-72
2023/04/09 11:36:13;;;;;;;27.20;17.77;;;;;;;15.61;100.00;102440.81;10372944;28;20045;-69
2023/04/09 11:41:14;;;;;;;27.15;17.58;;;;;;;14.85;100.00;102375.25;10411838;28;20041;-69
2023/04/09 11:46:14;;;;;;;24.83;15.90;;;;;;;15.64;100.00;102415.28;10408325;28;20115;-70
2023/04/09 11:51:15;;;;;;;26.88;16.98;;;;;;;15.97;100.00;102430.31;10407827;28;20045;-70
2023/04/09 11:56:15;;;;;;;26.42;16.35;;;;;;;15.80;100.00;102428.38;10423539;28;20041;-70
2023/04/09 12:01:16;;;;;;;20.88;14.30;;;;;;;16.19;100.00;102417.34;10412109;28;20682;-70
2023/04/09 12:06:17;;;;;;;20.48;13.77;;;;;;;17.46;96.95;102417.28;10358536;28;20149;-67
2023/04/09 12:11:17;;;;;;;20.65;15.20;;;;;;;18.07;95.01;102413.41;10390509;28;20045;-70
2023/04/09 12:16:18;;;;;;;21.92;15.05;;;;;;;18.34;90.87;102397.41;10410646;28;20107;-70
2023/04/09 12:21:18;;;;;;;19.27;14.45;;;;;;;19.11;84.65;102382.97;10411786;28;20041;-70
2023/04/09 12:26:19;;;;;;;29.83;12.95;;;;;;;19.05;82.12;102384.88;10415872;28;20033;-70
2023/04/09 12:31:20;;;;;;;22.95;14.27;;;;;;;18.44;79.87;102287.00;10420058;28;20041;-70
2023/04/09 12:36:20;;;;;;;15.00;11.38;;;;;;;19.65;75.62;102357.31;10416255;28;20030;-70
2023/04/09 12:41:21;;;;;;;17.92;13.20;;;;;;;19.27;73.91;102369.88;10398409;28;20038;-70
2023/04/09 12:46:21;;;;;;;19.70;14.50;;;;;;;19.27;76.38;102381.88;10379748;28;20060;-70
2023/04/09 12:51:22;;;;;;;16.35;12.32;;;;;;;20.10;70.90;102365.97;10382450;28;20042;-70
2023/04/09 12:56:23;;;;;;;19.10;12.80;;;;;;;20.24;68.07;102350.28;10361319;28;20552;-70
2023/04/09 13:01:24;;;;;;;16.88;12.57;;;;;;;20.29;68.93;102364.22;10377927;28;20041;-71
2023/04/09 13:06:24;;;;;;;18.02;13.00;;;;;;;19.69;68.40;102343.63;10376552;28;20037;-67
2023/04/09 13:11:25;;;;;;;17.23;13.35;;;;;;;20.04;66.71;102328.78;10376891;28;20170;-70
2023/04/09 13:16:26;;;;;;;17.65;13.57;;;;;;;20.56;65.46;102349.88;10399134;28;20042;-71
2023/04/09 13:21:27;;;;;;;14.45;11.65;;;;;;;21.30;64.41;102340.81;10367428;28;20118;-71
2023/04/09 13:26:28;;;;;;;15.90;11.38;;;;;;;21.41;62.53;102317.16;10375675;28;20409;-71
2023/04/09 13:31:28;;;;;;;15.68;11.68;;;;;;;21.00;61.33;102331.50;10377574;28;20038;-73
2023/04/09 13:36:30;;;;;;;15.10;11.68;;;;;;;20.33;62.12;102326.19;10376347;28;20030;-71
2023/04/09 13:41:31;;;;;;;15.75;11.90;;;;;;;19.87;66.53;102339.47;10387153;28;20034;-71
2023/04/09 13:46:32;;;;;;;14.05;11.25;;;;;;;20.58;63.92;102304.00;10399563;28;20492;-71
2023/04/09 13:51:32;;;;;;;17.25;12.02;;;;;;;19.95;59.77;102308.97;10382024;28;20042;-71
2023/04/09 13:56:33;;;;;;;17.15;12.18;;;;;;;20.41;62.60;102332.31;10375803;28;20037;-71
2023/04/09 14:01:33;;;;;;;15.85;11.35;;;;;;;20.99;60.97;102292.59;10376425;28;20548;-71
2023/04/09 14:06:34;;;;;;;14.15;10.48;;;;;;;22.20;58.64;102291.75;10375479;28;20046;-71
2023/04/09 14:11:35;;;;;;;12.73;9.43;;;;;;;22.11;57.17;102252.28;10348678;28;20069;-72
2023/04/09 14:16:35;;;;;;;12.15;9.93;;;;;;;22.20;55.33;102271.25;10381023;28;20050;-71
2023/04/09 14:21:36;;;;;;;11.70;9.80;;;;;;;22.29;55.74;102273.13;10357032;28;20077;-71
2023/04/09 14:26:36;;;;;;;14.40;10.13;;;;;;;22.12;57.39;102293.25;10374779;28;20067;-71
2023/04/09 14:31:37;;;;;;;12.57;10.10;;;;;;;22.16;56.68;102296.28;10357437;28;20045;-71
2023/04/09 14:36:37;;;;;;;13.48;10.00;;;;;;;22.12;55.93;102275.59;10375302;28;20042;-71
2023/04/09 14:41:38;;;;;;;12.85;9.20;;;;;;;21.07;56.18;102250.81;10357398;28;20038;-72
2023/04/09 14:46:38;;;;;;;11.00;8.95;;;;;;;20.92;55.35;102242.53;10373836;28;20037;-72
2023/04/09 14:51:39;;;;;;;12.15;9.38;;;;;;;21.55;54.69;102253.75;10374002;28;20046;-72
2023/04/09 14:56:39;;;;;;;12.95;8.98;;;;;;;22.50;54.88;102248.44;10374902;28;20038;-72
2023/04/09 15:01:40;;;;;;;13.07;9.50;;;;;;;22.62;53.36;102241.56;10356718;28;20038;-72
2023/04/09 15:06:41;;;;;;;12.48;9.32;;;;;;;22.81;52.54;102241.56;10373810;28;20026;-71
2023/04/09 15:11:41;;;;;;;12.45;9.48;;;;;;;22.41;52.49;102247.47;10373488;28;20037;-72
2023/04/09 15:16:42;;;;;;;12.05;9.40;;;;;;;22.48;52.08;102228.28;10373783;28;20054;-72
2023/04/09 15:21:42;;;;;;;14.20;9.05;;;;;;;22.99;53.06;102221.03;10372620;28;20053;-65
2023/04/09 15:26:43;;;;;;;12.10;9.18;;;;;;;22.72;52.32;102165.63;10379559;28;20044;-72
2023/04/09 15:31:43;;;;;;;13.10;9.82;;;;;;;22.96;51.78;102200.03;10339501;28;20034;-71
2023/04/09 15:36:44;;;;;;;12.90;10.15;;;;;;;22.55;50.92;102211.91;10354793;28;20042;-71
2023/04/09 15:41:45;;;;;;;13.90;10.13;;;;;;;22.14;50.80;102211.63;10366642;28;20049;-71
2023/04/09 15:46:45;;;;;;;11.68;8.93;;;;;;;21.80;50.33;102206.97;10411673;28;20069;-71
2023/04/09 15:51:46;;;;;;;10.82;9.00;;;;;;;22.29;51.62;102207.78;10385958;28;20037;-70
2023/04/09 15:56:47;;;;;;;13.00;9.57;;;;;;;22.59;49.63;102195.25;10412045;28;20049;-70
2023/04/09 16:01:47;;;;;;;12.43;10.60;;;;;;;22.64;50.81;102212.03;10410758;28;20033;-71
2023/04/09 16:06:48;;;;;;;13.18;10.73;;;;;;;21.47;50.61;102198.34;10394041;28;20524;-71
2023/04/09 16:11:49;;;;;;;14.48;11.52;;;;;;;18.98;55.73;102216.88;10411329;28;20037;-70
2023/04/09 16:16:50;;;;;;;14.05;10.77;;;;;;;17.83;58.02;102204.81;10394301;28;20041;-71
2023/04/09 16:21:52;;;;;;;14.18;10.52;;;;;;;19.00;57.47;102158.81;10407179;28;20083;-71
2023/04/09 16:26:52;;;;;;;13.57;10.18;;;;;;;20.13;55.26;102192.91;10411056;28;20034;-70
2023/04/09 16:31:53;;;;;;;14.73;10.15;;;;;;;19.04;55.77;102170.25;10393836;28;20080;-71
2023/04/09 16:36:53;;;;;;;14.18;10.75;;;;;;;17.64;60.57;102214.72;10409034;28;20117;-71
2023/04/09 16:41:54;;;;;;;15.98;10.90;;;;;;;18.11;59.54;102186.00;10393430;28;20033;-70
2023/04/09 16:46:55;;;;;;;14.10;10.30;;;;;;;18.43;59.26;102138.41;10393391;28;20076;-70
2023/04/09 16:51:56;;;;;;;15.15;11.00;;;;;;;18.10;59.11;102167.59;10411996;28;20045;-70
2023/04/09 16:56:57;;;;;;;14.40;10.75;;;;;;;16.71;63.60;102193.66;10410949;28;20029;-71
2023/04/09 17:01:57;;;;;;;17.05;11.60;;;;;;;15.89;66.09;102218.56;10411427;28;20088;-70
2023/04/09 17:06:58;;;;;;;17.30;12.20;;;;;;;15.22;68.28;102219.50;10413063;28;20060;-70
2023/04/09 17:11:59;;;;;;;17.75;11.02;;;;;;;14.69;70.58;102231.91;10417922;28;20061;-70
2023/04/09 17:17:00;;;;;;;16.58;11.15;;;;;;;14.33;72.37;102218.16;10398616;28;20151;-67
2023/04/09 17:22:00;;;;;;;15.82;11.27;;;;;;;14.10;72.95;102218.25;10401273;28;20057;-69
2023/04/09 17:27:04;;;;;;;17.17;11.20;;;;;;;13.86;76.85;102234.91;10415521;28;20041;-70
2023/04/09 17:32:05;;;;;;;21.00;12.57;;;;;;;13.53;76.48;102225.31;10399282;28;20044;-71
2023/04/09 17:37:06;;;;;;;17.00;10.93;;;;;;;13.42;77.37;102247.47;10417331;28;20029;-71
2023/04/09 17:42:06;;;;;;;17.90;11.15;;;;;;;13.16;78.91;102245.94;10386890;28;20049;-70
2023/04/09 17:47:07;;;;;;;16.38;10.65;;;;;;;12.89;80.66;102240.84;10416769;28;20045;-70
2023/04/09 17:52:08;;;;;;;20.08;11.27;;;;;;;12.63;83.28;102247.59;10399888;28;20396;-71
2023/04/09 17:57:09;;;;;;;19.25;11.88;;;;;;;12.37;84.87;102248.84;10416093;28;20049;-71
2023/04/09 18:02:09;;;;;;;18.67;11.10;;;;;;;12.22;88.45;102274.09;10416609;28;20033;-70
2023/04/09 18:07:10;;;;;;;18.25;11.32;;;;;;;11.92;92.67;102277.59;10415492;28;20517;-71
2023/04/09 18:12:11;;;;;;;17.80;11.80;;;;;;;11.62;95.57;102263.69;10414636;28;20374;-70
2023/04/09 18:17:11;;;;;;;17.67;11.57;;;;;;;11.37;99.48;102278.34;10397367;28;20041;-68
2023/04/09 18:22:11;;;;;;;18.38;11.82;;;;;;;11.10;100.00;102281.31;10415382;28;21086;-71
2023/04/09 18:27:12;;;;;;;17.90;11.20;;;;;;;10.84;100.00;102275.97;10415226;28;20033;-71
2023/04/09 18:32:12;;;;;;;16.25;10.40;;;;;;;10.60;100.00;102277.59;10378787;28;20048;-70
2023/04/09 18:37:17;;;;;;;18.48;11.20;;;;;;;10.37;100.00;102289.16;10377197;28;20050;-70
2023/04/09 18:42:17;;;;;;;18.48;11.10;;;;;;;10.22;100.00;102283.88;10371538;28;20034;-70
2023/04/09 18:47:18;;;;;;;18.65;11.82;;;;;;;10.06;100.00;102282.44;10370315;28;20042;-70
2023/04/09 18:52:18;;;;;;;17.55;11.32;;;;;;;9.97;100.00;102281.00;10354063;28;20046;-71
2023/04/09 18:57:18;;;;;;;21.60;12.20;;;;;;;9.80;100.00;102278.72;10367147;28;20029;-70
2023/04/09 19:02:19;;;;;;;18.80;12.20;;;;;;;9.62;100.00;102273.03;10353363;28;20025;-71
2023/04/09 19:07:20;;;;;;;20.45;13.77;;;;;;;9.44;100.00;102266.28;10383981;28;20037;-71
2023/04/09 19:12:20;;;;;;;23.05;13.93;;;;;;;9.42;100.00;102284.88;10371068;28;20038;-71
2023/04/09 19:17:21;;;;;;;24.00;13.57;;;;;;;9.32;100.00;102289.13;10368536;28;20062;-70
2023/04/09 19:22:21;;;;;;;27.90;16.70;;;;;;;9.11;100.00;102268.19;10369840;28;20061;-71
2023/04/09 19:27:22;;;;;;;34.00;21.92;;;;;;;8.95;100.00;102264.81;10352974;28;20077;-70
2023/04/09 19:32:22;;;;;;;36.67;22.38;;;;;;;9.05;100.00;102295.47;10335739;28;20049;-71
2023/04/09 19:37:27;;;;;;;34.05;21.50;;;;;;;8.98;100.00;102291.84;10369484;28;20026;-71
2023/04/09 19:42:27;;;;;;;32.63;20.17;;;;;;;8.78;100.00;102278.06;10352363;28;20038;-71
2023/04/09 19:47:28;;;;;;;30.80;18.38;;;;;;;8.80;100.00;102294.34;10352309;28;20044;-70
2023/04/09 19:52:28;;;;;;;32.35;19.15;;;;;;;8.67;100.00;102290.50;10351209;28;20445;-71
2023/04/09 19:57:30;;;;;;;31.67;19.58;;;;;;;8.57;100.00;102295.53;10382290;28;20034;-70
2023/04/09 20:02:31;;;;;;;29.65;16.85;;;;;;;8.41;100.00;102293.16;10351832;28;20048;-70
2023/04/09 20:07:31;;;;;;;31.17;18.65;;;;;;;8.28;100.00;102280.19;10367343;28;20038;-71
2023/04/09 20:12:33;;;;;;;28.13;17.40;;;;;;;8.35;100.00;102296.69;10319039;28;20049;-70
2023/04/09 20:17:33;;;;;;;31.83;17.08;;;;;;;8.35;100.00;102310.41;10351610;28;20108;-70
2023/04/09 20:22:34;;;;;;;28.63;17.70;;;;;;;8.32;100.00;102299.84;10334847;28;20136;-71
2023/04/09 20:27:36;;;;;;;30.38;18.13;;;;;;;8.24;100.00;102295.38;10366433;28;20049;-66
2023/04/09 20:32:36;;;;;;;30.20;19.70;;;;;;;8.13;100.00;102287.75;10366099;28;20046;-68
2023/04/09 20:37:37;;;;;;;31.38;18.52;;;;;;;7.93;100.00;102272.00;10368288;28;20073;-71
2023/04/09 20:42:41;;;;;;;34.25;19.52;;;;;;;7.89;100.00;102274.31;10362416;28;20488;-70
2023/04/09 20:47:42;;;;;;;32.90;19.60;;;;;;;7.78;100.00;102279.53;10375963;28;20037;-70
2023/04/09 20:52:43;;;;;;;33.33;20.25;;;;;;;7.70;100.00;102269.56;10419176;28;20527;-69
2023/04/09 20:57:44;;;;;;;37.92;20.52;;;;;;;7.59;100.00;102264.66;10417523;28;20038;-72
2023/04/09 21:02:44;;;;;;;36.25;19.70;;;;;;;7.50;100.00;102260.34;10398567;28;20048;-70
2023/04/09 21:07:45;;;;;;;36.60;20.98;;;;;;;7.26;100.00;102243.31;10399134;28;20041;-71
2023/04/09 21:12:45;;;;;;;35.58;21.35;;;;;;;7.33;100.00;102268.88;10359930;28;20038;-70
2023/04/09 21:17:46;;;;;;;33.80;20.73;;;;;;;7.24;100.00;102250.91;10361434;28;20038;-71
2023/04/09 21:22:46;;;;;;;36.83;21.92;;;;;;;7.05;100.00;102245.06;10392750;28;20037;-70
2023/04/09 21:27:47;;;;;;;38.42;22.13;;;;;;;7.16;100.00;102254.63;10399400;28;20080;-69
2023/04/09 21:32:47;;;;;;;40.10;22.30;;;;;;;7.11;100.00;102251.63;10399670;28;20049;-70
2023/04/09 21:37:48;;;;;;;38.90;23.23;;;;;;;7.04;100.00;102250.72;10404601;28;20037;-69
2023/04/09 21:42:49;;;;;;;39.95;21.67;;;;;;;7.03;100.00;102249.03;10399399;28;20044;-70
2023/04/09 21:47:49;;;;;;;41.28;23.33;;;;;;;7.02;100.00;102259.13;10360644;28;20049;-71
2023/04/09 21:52:50;;;;;;;37.95;22.33;;;;;;;6.92;100.00;102255.88;10349797;28;20040;-70
2023/04/09 21:57:54;;;;;;;42.78;22.80;;;;;;;6.89;100.00;102259.00;10384262;28;20037;-71
2023/04/09 22:02:59;;;;;;;38.25;22.98;;;;;;;6.64;100.00;102232.03;10374031;28;20030;-70
2023/04/09 22:08:00;;;;;;;36.60;22.63;;;;;;;6.69;100.00;102268.91;10366868;28;20095;-70
2023/04/09 22:13:00;;;;;;;41.33;23.13;;;;;;;6.59;100.00;102267.31;10384118;28;20873;-70
2023/04/09 22:18:01;;;;;;;42.15;23.67;;;;;;;6.52;100.00;102269.16;10413264;28;20045;-70
2023/04/09 22:23:02;;;;;;;39.05;23.38;;;;;;;6.42;100.00;102274.91;10385469;28;20044;-70
2023/04/09 22:28:04;;;;;;;41.72;22.85;;;;;;;6.29;100.00;102252.06;10391683;28;20042;-70